Time+07,TemperatureF,Dew PointF,Humidity,Sea Level PressureIn,VisibilityMPH,Wind Direction,Wind SpeedMPH,Gust SpeedMPH,PrecipitationIn,Events,Conditions,WindDirDegrees,DateUTC
12:00 AM,80.6,73.4,79,29.83,5.0,ENE,6.9,-,N/A,,Mostly Cloudy,60,2011-11-21 17:00:00
12:30 AM,80.6,73.4,79,29.83,4.3,ENE,6.9,-,N/A,,Mostly Cloudy,60,2011-11-21 17:30:00
1:00 AM,82,75,73,29.81,6,East,3.5,,,,Mist,80,2011-11-21 18:00:00
1:00 AM,80.6,73.4,79,29.80,4.3,ENE,5.8,-,N/A,,Mostly Cloudy,60,2011-11-21 18:00:00
1:30 AM,80.6,73.4,79,29.80,4.3,ENE,6.9,-,N/A,,Mostly Cloudy,60,2011-11-21 18:30:00
2:00 AM,80.6,73.4,79,29.80,4.3,East,9.2,-,N/A,,Mostly Cloudy,80,2011-11-21 19:00:00
2:30 AM,78.8,73.4,83,29.77,4.3,ENE,6.9,-,N/A,,Mostly Cloudy,70,2011-11-21 19:30:00
3:00 AM,78.8,73.4,83,29.77,4.3,East,8.1,-,N/A,,Mostly Cloudy,80,2011-11-21 20:00:00
3:30 AM,78.8,73.4,83,29.77,4.3,East,4.6,-,N/A,,Mostly Cloudy,80,2011-11-21 20:30:00
4:00 AM,78.8,73.4,83,29.74,4.3,East,4.6,-,N/A,,Mostly Cloudy,80,2011-11-21 21:00:00
4:30 AM,78.8,73.4,83,29.74,4.3,ENE,8.1,-,N/A,,Mostly Cloudy,70,2011-11-21 21:30:00
5:00 AM,78.8,71.6,78,29.77,4.3,ENE,5.8,-,N/A,,Mostly Cloudy,60,2011-11-21 22:00:00
5:30 AM,78.8,71.6,78,29.77,5.0,ENE,4.6,-,N/A,,Mostly Cloudy,60,2011-11-21 22:30:00
6:00 AM,78.8,73.4,83,29.77,5.0,ENE,6.9,-,N/A,,Mostly Cloudy,70,2011-11-21 23:00:00
6:30 AM,78.8,73.4,83,29.77,5.0,ENE,3.5,-,N/A,,Mostly Cloudy,60,2011-11-21 23:30:00
7:00 AM,79,76,86,29.77,5,Calm,Calm,,,,Mist,,2011-11-22 00:00:00
7:00 AM,78.8,73.4,83,29.77,4.3,ENE,4.6,-,N/A,,Mostly Cloudy,60,2011-11-22 00:00:00
7:30 AM,80.6,73.4,79,29.80,4.3,SE,3.5,-,N/A,,Mostly Cloudy,140,2011-11-22 00:30:00
8:00 AM,82.4,75.2,79,29.80,4.3,East,3.5,-,N/A,,Mostly Cloudy,80,2011-11-22 01:00:00
8:30 AM,82.4,73.4,74,29.83,4.3,ENE,5.8,-,N/A,,Mostly Cloudy,60,2011-11-22 01:30:00
9:00 AM,84.2,75.2,74,29.83,5.0,Variable,6.9,-,N/A,,Mostly Cloudy,0,2011-11-22 02:00:00
9:30 AM,86.0,75.2,70,29.83,4.3,East,9.2,-,N/A,,Mostly Cloudy,80,2011-11-22 02:30:00
10:00 AM,86.0,77.0,74,29.83,4.3,ENE,9.2,-,N/A,,Mostly Cloudy,70,2011-11-22 03:00:00
10:30 AM,87.8,75.2,66,29.80,4.3,ENE,8.1,-,N/A,,Mostly Cloudy,70,2011-11-22 03:30:00
11:00 AM,87.8,75.2,66,29.80,5.0,ENE,8.1,-,N/A,,Mostly Cloudy,70,2011-11-22 04:00:00
11:30 AM,87.8,75.2,66,29.80,5.0,East,11.5,-,N/A,,Mostly Cloudy,90,2011-11-22 04:30:00
12:00 PM,87.8,75.2,66,29.77,4.3,East,11.5,-,N/A,,Mostly Cloudy,100,2011-11-22 05:00:00
12:30 PM,87.8,75.2,66,29.80,5.0,East,11.5,-,N/A,,Mostly Cloudy,100,2011-11-22 05:30:00
1:00 PM,88,76,61,29.78,4,East,6.9,,,,Mist,90,2011-11-22 06:00:00
1:00 PM,86.0,75.2,70,29.74,4.3,East,9.2,-,N/A,,Mostly Cloudy,100,2011-11-22 06:00:00
1:30 PM,87.8,75.2,66,29.74,4.3,East,11.5,-,N/A,,Mostly Cloudy,90,2011-11-22 06:30:00
2:00 PM,87.8,75.2,66,29.74,4.3,East,11.5,-,N/A,,Mostly Cloudy,90,2011-11-22 07:00:00
2:30 PM,87.8,75.2,66,29.74,4.3,East,9.2,-,N/A,,Mostly Cloudy,90,2011-11-22 07:30:00
3:00 PM,86.0,75.2,70,29.74,4.3,East,11.5,-,N/A,,Mostly Cloudy,100,2011-11-22 08:00:00
3:30 PM,86.0,73.4,66,29.71,4.3,ENE,5.8,-,N/A,,Mostly Cloudy,60,2011-11-22 08:30:00
4:00 PM,86.0,73.4,66,29.71,4.3,East,8.1,-,N/A,,Mostly Cloudy,80,2011-11-22 09:00:00
4:30 PM,84.2,73.4,70,29.71,4.3,ENE,8.1,-,N/A,,Mostly Cloudy,70,2011-11-22 09:30:00
5:00 PM,84.2,73.4,70,29.71,4.3,ENE,6.9,-,N/A,,Mostly Cloudy,60,2011-11-22 10:00:00
5:30 PM,82.4,73.4,74,29.74,3.1,NE,4.6,-,N/A,,Mostly Cloudy,40,2011-11-22 10:30:00
6:00 PM,80.6,73.4,79,29.74,4.3,ENE,5.8,-,N/A,,Mostly Cloudy,70,2011-11-22 11:00:00
6:30 PM,80.6,73.4,79,29.74,4.3,ENE,5.8,-,N/A,,Mostly Cloudy,60,2011-11-22 11:30:00
7:00 PM,81,75,78,29.75,4,East,4.6,,,,Mist,90,2011-11-22 12:00:00
7:00 PM,80.6,73.4,79,29.77,4.3,NE,6.9,-,N/A,,Mostly Cloudy,50,2011-11-22 12:00:00
7:30 PM,82.4,73.4,74,29.80,4.3,NE,6.9,-,N/A,,Mostly Cloudy,40,2011-11-22 12:30:00
8:00 PM,80.6,75.2,84,29.80,4.3,NE,5.8,-,N/A,,Mostly Cloudy,50,2011-11-22 13:00:00
8:30 PM,80.6,75.2,84,29.83,4.3,ENE,9.2,-,N/A,,Mostly Cloudy,70,2011-11-22 13:30:00
9:00 PM,80.6,73.4,79,29.83,4.3,NE,6.9,-,N/A,,Mostly Cloudy,50,2011-11-22 14:00:00
9:30 PM,78.8,73.4,83,29.83,4.3,WSW,6.9,-,N/A,,Mostly Cloudy,250,2011-11-22 14:30:00
10:00 PM,80.6,73.4,79,29.83,4.3,ENE,6.9,-,N/A,,Mostly Cloudy,60,2011-11-22 15:00:00
11:30 PM,80.6,73.4,79,29.80,4.3,NE,5.8,-,N/A,,Mostly Cloudy,40,2011-11-22 16:30:00